Portada
METAR-TAF:

METAR-TAF

Aeroports :

Miyako-jima, Japó

latitud: 24-47N, longitud: 125-17E, altitud: 40 m

Observació

L'informe es va fer fa 28 minuts, a les 02:00 UTC
Vent 7 kt del Est/Nord-Est, variant entre Nord-Est i Est
Temperatura 26°C
Humitat 79%
Pressió 1017 hPa
Visibilitat 10 km o més
Núvols disperses a una alçada de 1400 ft

METAR: ROMY 040200Z 07007KT 040V100 9999 SCT014 26/22 Q1017

Hora: 11:28 (02:28 UTC)


TAF: manca

Observacions i pronòstics meteorològics de més de 4000 aeroports (METAR i TAF).

Les estacions disponibles són els punts grocs i vermells al mapa.

Posi el ratolí al punt desitjat per veure el nom de l'estació.

Feu clic per veure les observacions i els pronòstics meteorològics.

Per canviar el mapa: feu clic els botons verds amb una creu de color negre per apropar; al botó verd amb un guió per allunyar la imatge; o en les fletxes verdes per a mapes adjacents.


METAR-TAF: